Time;durP1;ratioP1;P1;durP2;ratioP2;P2;SDS_P1;SDS_P2;PMS_P1;PMS_P2;Temp;Humidity;BMP_temperature;BMP_pressure;BME280_temperature;BME280_humidity;BME280_pressure;Samples;Min_cycle;Max_cycle;Signal;HPM_P1;HPM_P2
2024/01/29 00:02:12;;;;;;;0.40;0.40;;;;;;;;;;5096485;27;20027;-87
2024/01/29 00:04:37;;;;;;;0.40;0.40;;;;;;;;;;5095001;28;20495;-87
2024/01/29 00:07:04;;;;;;;0.40;0.40;;;;;;;;;;5089925;27;20121;-87
2024/01/29 00:09:30;;;;;;;0.50;0.50;;;;;;;;;;5117275;27;20035;-87
2024/01/29 00:11:55;;;;;;;0.50;0.50;;;;;;;;;;5117209;27;20038;-87
2024/01/29 00:14:22;;;;;;;0.50;0.50;;;;;;;;;;5099734;27;20399;-86
2024/01/29 00:16:48;;;;;;;0.43;0.43;;;;;;;;;;5100004;27;20047;-86
2024/01/29 00:19:14;;;;;;;0.50;0.50;;;;;;;;;;5117282;27;20038;-87
2024/01/29 00:21:40;;;;;;;0.40;0.40;;;;;;;;;;5099893;27;20120;-87
2024/01/29 00:24:06;;;;;;;0.50;0.50;;;;;;;;;;5099223;27;20050;-87
2024/01/29 00:26:33;;;;;;;0.50;0.50;;;;;;;;;;5099635;27;20049;-86
2024/01/29 00:28:59;;;;;;;0.40;0.40;;;;;;;;;;5116843;27;20035;-87
2024/01/29 00:31:25;;;;;;;0.50;0.50;;;;;;;;;;5135033;27;20039;-87
2024/01/29 00:33:52;;;;;;;0.40;0.40;;;;;;;;;;5116081;27;20100;-87
2024/01/29 00:36:18;;;;;;;0.50;0.50;;;;;;;;;;5135076;27;20091;-87
2024/01/29 00:38:44;;;;;;;0.50;0.50;;;;;;;;;;5099839;27;20042;-87
2024/01/29 00:41:10;;;;;;;0.50;0.50;;;;;;;;;;5099698;27;20035;-87
2024/01/29 00:43:36;;;;;;;0.40;0.40;;;;;;;;;;5115934;27;20050;-87
2024/01/29 00:46:02;;;;;;;0.50;0.50;;;;;;;;;;5099455;27;20043;-87
2024/01/29 00:48:28;;;;;;;0.50;0.50;;;;;;;;;;5116731;27;20041;-87
2024/01/29 00:50:55;;;;;;;0.50;0.50;;;;;;;;;;5116638;27;20031;-87
2024/01/29 00:53:22;;;;;;;0.50;0.50;;;;;;;;;;5115756;27;20050;-87
2024/01/29 00:55:48;;;;;;;0.50;0.50;;;;;;;;;;5099238;27;20122;-87
2024/01/29 00:58:14;;;;;;;0.40;0.40;;;;;;;;;;5099340;27;20039;-87
2024/01/29 01:00:41;;;;;;;0.50;0.50;;;;;;;;;;5099504;27;20070;-86
2024/01/29 01:03:31;;;;;;;0.50;0.50;;;;;;;;;;5115626;27;20045;-87
2024/01/29 01:05:57;;;;;;;0.50;0.50;;;;;;;;;;5098766;27;20031;-87
2024/01/29 01:08:23;;;;;;;0.50;0.50;;;;;;;;;;5116115;27;20084;-87
2024/01/29 01:10:49;;;;;;;0.50;0.50;;;;;;;;;;5098401;27;20031;-86
2024/01/29 01:13:15;;;;;;;0.57;0.57;;;;;;;;;;5115317;27;20043;-87
2024/01/29 01:15:41;;;;;;;0.52;0.52;;;;;;;;;;5099090;27;20503;-87
2024/01/29 01:18:07;;;;;;;0.50;0.50;;;;;;;;;;5116363;27;20075;-87
2024/01/29 01:20:34;;;;;;;0.50;0.50;;;;;;;;;;5115798;27;20039;-87
2024/01/29 01:23:12;;;;;;;0.50;0.50;;;;;;;;;;5133901;27;20041;-87
2024/01/29 01:25:38;;;;;;;0.60;0.60;;;;;;;;;;5098802;27;20043;-87
2024/01/29 01:28:04;;;;;;;0.50;0.50;;;;;;;;;;5099002;27;20919;-87
2024/01/29 01:30:30;;;;;;;0.50;0.50;;;;;;;;;;5098851;28;20039;-87
2024/01/29 01:32:56;;;;;;;0.50;0.50;;;;;;;;;;5098598;27;20035;-87
2024/01/29 01:35:22;;;;;;;0.40;0.40;;;;;;;;;;5134202;27;20092;-87
2024/01/29 01:37:48;;;;;;;0.50;0.50;;;;;;;;;;5095487;28;20049;-87
2024/01/29 01:40:14;;;;;;;0.50;0.50;;;;;;;;;;5095571;28;20041;-87
2024/01/29 01:42:41;;;;;;;0.40;0.40;;;;;;;;;;5114756;28;20111;-87
2024/01/29 01:45:07;;;;;;;0.50;0.50;;;;;;;;;;5115763;28;20118;-86
2024/01/29 01:47:33;;;;;;;0.50;0.50;;;;;;;;;;5098690;28;20061;-86
2024/01/29 01:49:59;;;;;;;0.40;0.40;;;;;;;;;;5115584;28;20392;-87
2024/01/29 01:52:25;;;;;;;0.50;0.50;;;;;;;;;;5097767;28;20042;-87
2024/01/29 01:54:53;;;;;;;0.50;0.50;;;;;;;;;;5134017;28;20489;-87
2024/01/29 01:57:19;;;;;;;0.50;0.50;;;;;;;;;;5098801;28;20035;-87
2024/01/29 01:59:45;;;;;;;0.47;0.47;;;;;;;;;;5115676;28;20039;-86
2024/01/29 02:02:11;;;;;;;0.60;0.60;;;;;;;;;;5094535;28;20519;-87
2024/01/29 02:04:37;;;;;;;0.55;0.55;;;;;;;;;;5078098;28;20403;-87
2024/01/29 02:07:03;;;;;;;0.50;0.50;;;;;;;;;;5087386;28;20031;-87
2024/01/29 02:09:30;;;;;;;0.50;0.50;;;;;;;;;;5115203;28;20084;-86
2024/01/29 02:11:56;;;;;;;0.50;0.50;;;;;;;;;;5097528;28;20402;-87
2024/01/29 02:14:21;;;;;;;0.50;0.50;;;;;;;;;;5115491;28;20114;-87
2024/01/29 02:16:47;;;;;;;0.50;0.50;;;;;;;;;;5098586;28;20100;-87
2024/01/29 02:19:17;;;;;;;0.50;0.50;;;;;;;;;;5098210;28;20071;-87
2024/01/29 02:21:44;;;;;;;0.50;0.50;;;;;;;;;;5099047;27;20043;-87
2024/01/29 02:24:10;;;;;;;0.50;0.50;;;;;;;;;;5101926;27;20436;-86
2024/01/29 02:26:36;;;;;;;0.50;0.50;;;;;;;;;;5102100;27;20061;-87
2024/01/29 02:29:02;;;;;;;0.50;0.50;;;;;;;;;;5119390;27;20515;-87
2024/01/29 02:31:28;;;;;;;0.50;0.50;;;;;;;;;;5119058;27;20100;-86
2024/01/29 02:33:54;;;;;;;0.50;0.50;;;;;;;;;;5098314;28;20039;-86
2024/01/29 02:36:20;;;;;;;0.50;0.50;;;;;;;;;;5081612;28;20091;-86
2024/01/29 02:38:46;;;;;;;0.80;0.77;;;;;;;;;;5081764;28;20480;-86
2024/01/29 02:41:12;;;;;;;0.50;0.50;;;;;;;;;;5084400;27;20042;-86
2024/01/29 02:43:38;;;;;;;0.50;0.50;;;;;;;;;;5097893;28;20423;-87
2024/01/29 02:46:04;;;;;;;0.50;0.50;;;;;;;;;;5081306;28;20039;-87
2024/01/29 02:48:30;;;;;;;0.50;0.50;;;;;;;;;;5098296;28;20039;-87
2024/01/29 02:50:56;;;;;;;0.50;0.50;;;;;;;;;;5098599;28;20096;-87
2024/01/29 02:53:22;;;;;;;0.50;0.50;;;;;;;;;;5088348;27;20070;-87
2024/01/29 02:55:48;;;;;;;0.50;0.50;;;;;;;;;;5098023;28;20043;-87
2024/01/29 02:58:13;;;;;;;0.50;0.50;;;;;;;;;;5098383;28;20039;-86
2024/01/29 03:00:39;;;;;;;0.45;0.45;;;;;;;;;;5098457;28;20442;-86
2024/01/29 03:03:05;;;;;;;0.50;0.50;;;;;;;;;;5083117;27;20040;-87
2024/01/29 03:05:31;;;;;;;0.50;0.50;;;;;;;;;;5097596;28;20047;-86
2024/01/29 03:07:57;;;;;;;0.50;0.50;;;;;;;;;;5081360;28;20067;-87
2024/01/29 03:10:24;;;;;;;0.60;0.60;;;;;;;;;;5081233;28;20040;-87
2024/01/29 03:12:50;;;;;;;0.50;0.50;;;;;;;;;;5080758;28;20036;-87
2024/01/29 03:15:16;;;;;;;0.50;0.50;;;;;;;;;;5098080;27;20122;-86
2024/01/29 03:17:42;;;;;;;0.50;0.50;;;;;;;;;;5101221;27;20065;-86
2024/01/29 03:20:09;;;;;;;0.50;0.50;;;;;;;;;;5117527;27;20035;-86
2024/01/29 03:22:35;;;;;;;0.50;0.50;;;;;;;;;;5117590;27;20452;-87
2024/01/29 03:25:01;;;;;;;0.50;0.50;;;;;;;;;;5100978;27;20043;-86
2024/01/29 03:27:27;;;;;;;0.50;0.50;;;;;;;;;;5101142;27;20502;-86
2024/01/29 03:29:53;;;;;;;0.50;0.50;;;;;;;;;;5101281;27;20125;-86
2024/01/29 03:32:32;;;;;;;0.50;0.50;;;;;;;;;;5099906;27;20039;-86
2024/01/29 03:34:58;;;;;;;0.45;0.45;;;;;;;;;;5118669;27;20050;-87
2024/01/29 03:37:24;;;;;;;0.50;0.50;;;;;;;;;;5104828;27;20038;-86
2024/01/29 03:39:50;;;;;;;0.50;0.50;;;;;;;;;;5130405;27;20035;-86
2024/01/29 03:42:16;;;;;;;0.50;0.50;;;;;;;;;;5100465;27;20542;-86
2024/01/29 03:44:42;;;;;;;0.50;0.50;;;;;;;;;;5103646;27;20035;-86
2024/01/29 03:47:08;;;;;;;0.60;0.60;;;;;;;;;;5100503;27;20043;-86
2024/01/29 03:49:34;;;;;;;0.50;0.50;;;;;;;;;;5117814;27;20035;-86
2024/01/29 03:52:00;;;;;;;0.50;0.50;;;;;;;;;;5102216;27;20423;-86
2024/01/29 03:54:26;;;;;;;0.70;0.70;;;;;;;;;;5117156;27;20031;-86
2024/01/29 03:56:52;;;;;;;0.50;0.50;;;;;;;;;;5115670;27;20049;-86
2024/01/29 03:59:18;;;;;;;0.50;0.50;;;;;;;;;;5117278;27;20050;-86
2024/01/29 04:01:44;;;;;;;0.50;0.50;;;;;;;;;;5122739;27;20507;-86
2024/01/29 04:04:10;;;;;;;0.60;0.60;;;;;;;;;;5117079;27;20106;-86
2024/01/29 04:06:40;;;;;;;0.50;0.50;;;;;;;;;;5117036;27;20127;-86
2024/01/29 04:09:09;;;;;;;0.60;0.60;;;;;;;;;;5116845;27;20064;-86
2024/01/29 04:11:35;;;;;;;0.50;0.50;;;;;;;;;;5135672;27;20042;-86
2024/01/29 04:14:01;;;;;;;0.50;0.50;;;;;;;;;;5125398;27;20103;-86
2024/01/29 04:16:27;;;;;;;0.50;0.50;;;;;;;;;;5100069;27;20035;-86
2024/01/29 04:18:53;;;;;;;0.50;0.50;;;;;;;;;;5100007;27;20483;-86
2024/01/29 04:21:19;;;;;;;0.50;0.50;;;;;;;;;;5099848;27;20435;-86
2024/01/29 04:23:45;;;;;;;0.55;0.55;;;;;;;;;;5135058;27;20039;-86
2024/01/29 04:26:11;;;;;;;0.50;0.50;;;;;;;;;;5080913;28;20047;-86
2024/01/29 04:28:36;;;;;;;0.50;0.50;;;;;;;;;;5096712;28;20469;-86
2024/01/29 04:31:02;;;;;;;0.45;0.45;;;;;;;;;;5079707;28;20039;-86
2024/01/29 04:33:28;;;;;;;0.50;0.50;;;;;;;;;;5114326;28;20039;-86
2024/01/29 04:35:54;;;;;;;0.50;0.50;;;;;;;;;;5079476;28;20073;-86
2024/01/29 04:38:20;;;;;;;0.50;0.50;;;;;;;;;;5079348;28;20047;-86
2024/01/29 04:40:46;;;;;;;0.50;0.50;;;;;;;;;;5079520;28;20494;-86
2024/01/29 04:43:12;;;;;;;0.60;0.60;;;;;;;;;;5095729;28;20093;-86
2024/01/29 04:45:38;;;;;;;0.60;0.60;;;;;;;;;;5079070;28;20126;-86
2024/01/29 04:48:04;;;;;;;0.50;0.50;;;;;;;;;;5096413;28;20036;-86
2024/01/29 04:50:30;;;;;;;0.50;0.50;;;;;;;;;;5079396;28;20059;-86
2024/01/29 04:52:56;;;;;;;0.50;0.50;;;;;;;;;;5095824;28;20166;-87
2024/01/29 04:55:22;;;;;;;0.40;0.40;;;;;;;;;;5086694;28;20047;-86
2024/01/29 04:57:48;;;;;;;0.50;0.50;;;;;;;;;;5078879;28;20130;-86
2024/01/29 05:00:29;;;;;;;0.45;0.45;;;;;;;;;;5085926;27;20484;-86
2024/01/29 05:02:54;;;;;;;0.50;0.50;;;;;;;;;;5097211;27;20051;-86
2024/01/29 05:05:20;;;;;;;0.50;0.50;;;;;;;;;;5115221;27;20154;-85
2024/01/29 05:07:46;;;;;;;0.40;0.40;;;;;;;;;;5098237;27;20039;-86
2024/01/29 05:10:12;;;;;;;0.45;0.45;;;;;;;;;;5098279;27;20475;-86
2024/01/29 05:12:38;;;;;;;0.40;0.40;;;;;;;;;;5111723;28;20037;-86
2024/01/29 05:15:05;;;;;;;0.50;0.50;;;;;;;;;;5097238;27;20031;-86
2024/01/29 05:17:31;;;;;;;0.50;0.50;;;;;;;;;;5098129;27;20039;-86
2024/01/29 05:19:57;;;;;;;0.50;0.50;;;;;;;;;;5097962;27;20380;-86
2024/01/29 05:22:23;;;;;;;0.50;0.50;;;;;;;;;;5097806;27;20043;-86
2024/01/29 05:24:49;;;;;;;0.50;0.50;;;;;;;;;;5098147;28;20027;-86
2024/01/29 05:27:15;;;;;;;0.50;0.50;;;;;;;;;;5098364;27;20061;-86
2024/01/29 05:29:41;;;;;;;0.50;0.50;;;;;;;;;;5115401;27;20073;-86
2024/01/29 05:32:07;;;;;;;0.50;0.50;;;;;;;;;;5132897;27;20039;-87
2024/01/29 05:34:32;;;;;;;0.50;0.50;;;;;;;;;;5097861;28;20526;-86
2024/01/29 05:40:21;;;;;;;0.50;0.50;;;;;;;;;;5133469;27;20034;-85
2024/01/29 05:42:52;;;;;;;0.50;0.50;;;;;;;;;;5097561;28;20483;-86
2024/01/29 05:45:18;;;;;;;0.50;0.50;;;;;;;;;;5114811;28;20054;-86
2024/01/29 05:47:44;;;;;;;0.50;0.50;;;;;;;;;;5097603;28;20035;-86
2024/01/29 05:50:10;;;;;;;0.40;0.40;;;;;;;;;;5098182;28;20373;-86
2024/01/29 05:52:36;;;;;;;0.40;0.40;;;;;;;;;;5114536;28;20036;-86
2024/01/29 05:55:02;;;;;;;0.50;0.50;;;;;;;;;;5098101;27;20479;-86
2024/01/29 05:57:29;;;;;;;0.40;0.40;;;;;;;;;;5119247;27;20100;-86
2024/01/29 05:59:55;;;;;;;0.50;0.50;;;;;;;;;;5101950;27;20121;-86
2024/01/29 06:02:21;;;;;;;0.50;0.50;;;;;;;;;;5101744;27;20035;-86
2024/01/29 06:04:47;;;;;;;0.50;0.50;;;;;;;;;;5118783;27;20035;-86
2024/01/29 06:07:13;;;;;;;0.50;0.50;;;;;;;;;;5101669;27;20411;-86
2024/01/29 06:09:39;;;;;;;0.50;0.50;;;;;;;;;;5101544;27;20031;-86
2024/01/29 06:12:05;;;;;;;0.50;0.50;;;;;;;;;;5118501;27;20036;-86
2024/01/29 06:14:31;;;;;;;0.50;0.50;;;;;;;;;;5101989;27;20175;-86
2024/01/29 06:16:58;;;;;;;0.40;0.40;;;;;;;;;;5119128;27;20039;-86
2024/01/29 06:19:24;;;;;;;0.40;0.40;;;;;;;;;;5101517;27;20066;-86
2024/01/29 06:21:50;;;;;;;0.47;0.47;;;;;;;;;;5118800;27;20050;-86
2024/01/29 06:24:16;;;;;;;0.40;0.40;;;;;;;;;;5101191;27;20047;-86
2024/01/29 06:26:42;;;;;;;0.60;0.60;;;;;;;;;;5101242;27;20043;-86
2024/01/29 06:29:08;;;;;;;0.40;0.40;;;;;;;;;;5101493;27;20122;-86
2024/01/29 06:31:38;;;;;;;0.50;0.50;;;;;;;;;;5118545;27;20074;-86
2024/01/29 06:34:04;;;;;;;0.50;0.50;;;;;;;;;;5101128;27;20115;-86
2024/01/29 06:36:31;;;;;;;0.50;0.50;;;;;;;;;;5118258;27;20084;-86
2024/01/29 06:38:58;;;;;;;0.82;0.82;;;;;;;;;;5118475;27;20537;-86
2024/01/29 06:41:24;;;;;;;0.50;0.50;;;;;;;;;;5118062;27;20043;-86
2024/01/29 06:43:51;;;;;;;0.50;0.50;;;;;;;;;;5100833;27;20084;-86
2024/01/29 06:46:17;;;;;;;0.43;0.43;;;;;;;;;;5136567;27;20039;-86
2024/01/29 06:48:43;;;;;;;0.50;0.50;;;;;;;;;;5101038;27;20122;-86
2024/01/29 06:51:09;;;;;;;0.50;0.50;;;;;;;;;;5118257;27;20063;-86
2024/01/29 06:53:35;;;;;;;0.50;0.50;;;;;;;;;;5117761;27;20039;-86
2024/01/29 06:58:55;;;;;;;0.43;0.43;;;;;;;;;;5136063;27;20047;-86
2024/01/29 07:01:21;;;;;;;0.50;0.50;;;;;;;;;;5117806;27;20069;-87
2024/01/29 07:03:47;;;;;;;0.47;0.47;;;;;;;;;;5100412;27;20071;-86
2024/01/29 07:06:13;;;;;;;0.50;0.50;;;;;;;;;;5117301;27;20042;-86
2024/01/29 07:08:39;;;;;;;0.50;0.50;;;;;;;;;;5116712;27;20086;-87
2024/01/29 07:11:05;;;;;;;0.47;0.47;;;;;;;;;;5100554;27;20479;-87
2024/01/29 07:13:31;;;;;;;0.50;0.50;;;;;;;;;;5117943;27;20046;-87
2024/01/29 07:15:58;;;;;;;0.50;0.50;;;;;;;;;;5117737;27;20498;-87
2024/01/29 07:18:33;;;;;;;0.50;0.50;;;;;;;;;;5136080;27;20114;-87
2024/01/29 07:20:59;;;;;;;0.40;0.40;;;;;;;;;;5100545;27;20122;-87
2024/01/29 07:23:25;;;;;;;0.40;0.40;;;;;;;;;;5100107;27;20039;-87
2024/01/29 07:25:51;;;;;;;0.50;0.50;;;;;;;;;;5100230;27;20043;-87
2024/01/29 07:28:17;;;;;;;0.50;0.50;;;;;;;;;;5117402;27;20045;-88
2024/01/29 07:30:43;;;;;;;0.50;0.50;;;;;;;;;;5100395;27;20023;-87
2024/01/29 07:33:11;;;;;;;0.50;0.50;;;;;;;;;;5117557;27;20444;-87
2024/01/29 07:35:38;;;;;;;0.45;0.45;;;;;;;;;;5125631;27;20120;-88
2024/01/29 07:38:05;;;;;;;0.50;0.50;;;;;;;;;;5110198;27;20058;-87
2024/01/29 07:40:35;;;;;;;0.50;0.50;;;;;;;;;;5116853;27;20054;-88
2024/01/29 07:43:02;;;;;;;0.50;0.50;;;;;;;;;;5099755;27;20055;-88
2024/01/29 07:48:50;;;;;;;0.50;0.50;;;;;;;;;;5114052;28;20420;-88
2024/01/29 07:51:18;;;;;;;0.40;0.40;;;;;;;;;;5106394;27;20408;-85
2024/01/29 07:53:44;;;;;;;0.52;0.52;;;;;;;;;;5108250;27;20129;-87
2024/01/29 07:56:10;;;;;;;0.50;0.50;;;;;;;;;;5110510;27;20067;-86
2024/01/29 07:58:36;;;;;;;0.40;0.40;;;;;;;;;;5130056;27;20034;-85
2024/01/29 08:01:02;;;;;;;0.50;0.50;;;;;;;;;;5113223;27;20271;-88
2024/01/29 08:03:28;;;;;;;0.50;0.50;;;;;;;;;;5104908;27;20038;-91
2024/01/29 08:05:54;;;;;;;0.50;0.50;;;;;;;;;;5119151;27;20590;-88
2024/01/29 08:08:20;;;;;;;0.50;0.50;;;;;;;;;;5103325;27;20397;-90
2024/01/29 08:10:47;;;;;;;0.60;0.60;;;;;;;;;;5102066;27;20035;-91
2024/01/29 08:13:13;;;;;;;0.50;0.50;;;;;;;;;;5119448;27;20039;-92
2024/01/29 08:15:40;;;;;;;0.50;0.50;;;;;;;;;;5106842;27;20039;-89
2024/01/29 08:18:06;;;;;;;0.50;0.50;;;;;;;;;;5101326;27;20035;-90
2024/01/29 08:20:32;;;;;;;0.50;0.50;;;;;;;;;;5097474;28;20047;-95
2024/01/29 08:22:58;;;;;;;0.50;0.50;;;;;;;;;;5097055;28;20040;-94
2024/01/29 08:25:26;;;;;;;0.47;0.47;;;;;;;;;;5080240;28;20035;-90
2024/01/29 08:27:52;;;;;;;0.50;0.50;;;;;;;;;;5115637;27;20161;-91
2024/01/29 08:30:18;;;;;;;0.50;0.50;;;;;;;;;;5121922;27;20066;-91
2024/01/29 08:32:44;;;;;;;0.40;0.40;;;;;;;;;;5101670;27;20040;-92
2024/01/29 08:35:11;;;;;;;0.50;0.50;;;;;;;;;;5103467;28;20035;-91
2024/01/29 08:37:37;;;;;;;0.50;0.50;;;;;;;;;;5106952;27;20092;-93
2024/01/29 08:40:03;;;;;;;0.40;0.40;;;;;;;;;;5101226;27;20064;-92
2024/01/29 08:42:29;;;;;;;0.40;0.40;;;;;;;;;;5128600;27;20067;-92
2024/01/29 08:44:56;;;;;;;0.50;0.50;;;;;;;;;;5102575;27;20084;-86
2024/01/29 08:47:22;;;;;;;0.50;0.50;;;;;;;;;;5124517;27;20499;-89
2024/01/29 08:49:50;;;;;;;0.50;0.50;;;;;;;;;;5099608;27;20752;-87
2024/01/29 08:52:16;;;;;;;0.50;0.50;;;;;;;;;;5125806;27;20261;-88
2024/01/29 08:54:42;;;;;;;0.50;0.50;;;;;;;;;;5104388;27;20030;-87
2024/01/29 08:57:08;;;;;;;0.50;0.50;;;;;;;;;;5116655;27;20100;-90
2024/01/29 08:59:34;;;;;;;0.50;0.50;;;;;;;;;;5099451;27;20708;-91
2024/01/29 09:02:00;;;;;;;0.50;0.50;;;;;;;;;;5089212;27;20035;-91
2024/01/29 09:04:27;;;;;;;0.40;0.40;;;;;;;;;;5108494;27;20039;-91
2024/01/29 09:06:53;;;;;;;0.50;0.50;;;;;;;;;;5117813;27;20125;-88
2024/01/29 09:09:19;;;;;;;0.50;0.50;;;;;;;;;;5121651;27;20068;-89
2024/01/29 09:11:46;;;;;;;0.50;0.50;;;;;;;;;;5117020;27;20039;-90
2024/01/29 09:14:12;;;;;;;0.50;0.50;;;;;;;;;;5099437;27;20058;-90
2024/01/29 09:16:39;;;;;;;0.50;0.50;;;;;;;;;;5099531;27;20084;-91
2024/01/29 09:19:05;;;;;;;0.45;0.45;;;;;;;;;;5116531;27;20039;-88
2024/01/29 09:21:58;;;;;;;0.50;0.50;;;;;;;;;;5134038;27;20702;-88
2024/01/29 09:24:24;;;;;;;0.50;0.50;;;;;;;;;;5098780;27;20074;-92
2024/01/29 09:26:50;;;;;;;0.45;0.45;;;;;;;;;;5099095;27;20050;-90
2024/01/29 09:29:17;;;;;;;0.50;0.50;;;;;;;;;;5098108;27;20039;-86
2024/01/29 09:31:43;;;;;;;0.50;0.50;;;;;;;;;;5114363;28;20035;-88
2024/01/29 09:34:09;;;;;;;0.50;0.50;;;;;;;;;;5133825;27;20046;-87
2024/01/29 09:36:35;;;;;;;0.50;0.50;;;;;;;;;;5098482;27;20043;-88
2024/01/29 09:39:01;;;;;;;0.60;0.60;;;;;;;;;;5115855;27;20098;-88
2024/01/29 09:41:32;;;;;;;0.60;0.60;;;;;;;;;;5098477;27;20035;-87
2024/01/29 09:44:00;;;;;;;0.75;0.75;;;;;;;;;;5082167;28;20081;-88
2024/01/29 09:46:26;;;;;;;0.40;0.40;;;;;;;;;;5134001;28;20126;-88
2024/01/29 09:48:52;;;;;;;0.50;0.50;;;;;;;;;;5115956;28;20091;-89
2024/01/29 09:51:20;;;;;;;0.40;0.40;;;;;;;;;;5115768;28;20122;-89
2024/01/29 09:53:47;;;;;;;0.40;0.40;;;;;;;;;;5115270;28;20066;-93
2024/01/29 09:56:13;;;;;;;0.45;0.45;;;;;;;;;;5105832;27;20506;-89
2024/01/29 09:58:39;;;;;;;0.47;0.47;;;;;;;;;;5105219;28;20046;-91
2024/01/29 10:01:09;;;;;;;0.50;0.50;;;;;;;;;;5099031;28;20047;-89
2024/01/29 10:03:37;;;;;;;0.50;0.50;;;;;;;;;;5114700;28;20499;-87
2024/01/29 10:06:03;;;;;;;0.40;0.40;;;;;;;;;;5098223;28;20130;-87
2024/01/29 10:08:32;;;;;;;0.50;0.50;;;;;;;;;;5115192;28;20047;-87
2024/01/29 10:10:58;;;;;;;0.40;0.40;;;;;;;;;;5097987;28;20039;-87
2024/01/29 10:13:30;;;;;;;0.40;0.40;;;;;;;;;;5097390;28;20070;-87
2024/01/29 10:15:59;;;;;;;0.50;0.50;;;;;;;;;;5098641;28;20051;-89
2024/01/29 10:18:25;;;;;;;0.40;0.40;;;;;;;;;;5099118;28;20035;-88
2024/01/29 10:21:04;;;;;;;0.50;0.50;;;;;;;;;;5115200;28;20091;-89
2024/01/29 10:23:30;;;;;;;0.47;0.47;;;;;;;;;;5098120;28;20078;-91
2024/01/29 10:25:57;;;;;;;0.40;0.40;;;;;;;;;;5097672;28;20118;-87
2024/01/29 10:28:26;;;;;;;0.50;0.50;;;;;;;;;;5115724;28;20043;-87
2024/01/29 10:30:52;;;;;;;0.40;0.40;;;;;;;;;;5100195;27;20047;-88
2024/01/29 10:33:18;;;;;;;0.40;0.40;;;;;;;;;;5106489;28;20123;-88
2024/01/29 10:35:44;;;;;;;0.35;0.35;;;;;;;;;;5098271;28;20524;-88
2024/01/29 10:38:13;;;;;;;0.47;0.47;;;;;;;;;;5098312;28;20039;-91
2024/01/29 10:40:41;;;;;;;0.40;0.40;;;;;;;;;;5115841;28;20039;-90
2024/01/29 10:43:09;;;;;;;0.40;0.40;;;;;;;;;;5101728;27;20658;-89
2024/01/29 10:45:39;;;;;;;0.45;0.45;;;;;;;;;;5118958;27;20036;-88
2024/01/29 10:48:11;;;;;;;0.40;0.40;;;;;;;;;;5101742;27;20031;-85
2024/01/29 10:50:37;;;;;;;0.40;0.40;;;;;;;;;;5101929;27;20050;-88
2024/01/29 10:53:04;;;;;;;0.40;0.40;;;;;;;;;;5100871;27;20367;-87
2024/01/29 10:55:30;;;;;;;0.50;0.50;;;;;;;;;;5101213;27;20039;-87
2024/01/29 10:58:01;;;;;;;0.40;0.40;;;;;;;;;;5118378;27;20039;-86
2024/01/29 11:00:28;;;;;;;0.40;0.40;;;;;;;;;;5136260;27;20051;-87
2024/01/29 11:02:56;;;;;;;0.40;0.40;;;;;;;;;;5100725;27;20039;-87
2024/01/29 11:05:22;;;;;;;0.40;0.40;;;;;;;;;;5093508;28;20134;-87
2024/01/29 11:07:49;;;;;;;0.47;0.47;;;;;;;;;;5110217;27;20519;-88
2024/01/29 11:10:44;;;;;;;0.40;0.40;;;;;;;;;;5100403;27;20039;-87
2024/01/29 11:13:11;;;;;;;0.50;0.50;;;;;;;;;;5100652;27;20031;-87
2024/01/29 11:15:37;;;;;;;0.40;0.40;;;;;;;;;;5118094;27;20506;-88
2024/01/29 11:18:04;;;;;;;0.40;0.40;;;;;;;;;;5117764;27;20408;-87
2024/01/29 11:20:34;;;;;;;0.40;0.40;;;;;;;;;;5099965;27;20082;-87
2024/01/29 11:23:02;;;;;;;0.40;0.40;;;;;;;;;;5100051;27;20039;-87
2024/01/29 11:25:28;;;;;;;0.40;0.40;;;;;;;;;;5101359;27;20050;-87
2024/01/29 11:28:02;;;;;;;2.17;1.90;;;;;;;;;;5101241;27;20046;-88
2024/01/29 11:30:28;;;;;;;0.40;0.40;;;;;;;;;;5136687;27;20047;-89
2024/01/29 11:32:55;;;;;;;0.40;0.40;;;;;;;;;;5127346;27;20364;-88
2024/01/29 11:35:23;;;;;;;0.50;0.50;;;;;;;;;;5129024;27;20400;-88
2024/01/29 11:37:50;;;;;;;0.50;0.50;;;;;;;;;;5096413;27;20476;-89
2024/01/29 11:43:40;;;;;;;0.40;0.40;;;;;;;;;;5134054;27;20099;-89
2024/01/29 11:46:06;;;;;;;0.50;0.50;;;;;;;;;;5134752;27;20402;-89
2024/01/29 11:48:32;;;;;;;0.50;0.50;;;;;;;;;;5096872;28;20415;-89
2024/01/29 11:50:58;;;;;;;0.40;0.40;;;;;;;;;;5110857;27;20031;-89
2024/01/29 11:53:25;;;;;;;0.70;0.70;;;;;;;;;;5099454;27;20880;-89
2024/01/29 11:55:51;;;;;;;0.35;0.35;;;;;;;;;;5100520;27;20526;-89
2024/01/29 11:58:25;;;;;;;0.40;0.40;;;;;;;;;;5100376;27;20496;-89
2024/01/29 12:00:52;;;;;;;0.30;0.30;;;;;;;;;;5117884;27;20070;-89
2024/01/29 12:03:21;;;;;;;0.40;0.40;;;;;;;;;;5100324;27;20500;-88
2024/01/29 12:06:09;;;;;;;0.40;0.40;;;;;;;;;;5099004;27;20066;-89
2024/01/29 12:08:36;;;;;;;0.40;0.40;;;;;;;;;;5100168;27;20043;-87
2024/01/29 12:11:03;;;;;;;0.40;0.40;;;;;;;;;;5116919;27;20031;-87
2024/01/29 12:13:29;;;;;;;0.43;0.43;;;;;;;;;;5099274;27;20036;-88
2024/01/29 12:15:56;;;;;;;0.40;0.40;;;;;;;;;;5100136;27;20463;-89
2024/01/29 12:18:24;;;;;;;0.40;0.40;;;;;;;;;;5100457;27;20047;-91
2024/01/29 12:20:50;;;;;;;0.40;0.40;;;;;;;;;;5116725;27;20039;-87
2024/01/29 12:23:23;;;;;;;0.50;0.50;;;;;;;;;;5099226;27;20035;-87
2024/01/29 12:25:53;;;;;;;0.40;0.40;;;;;;;;;;5116644;27;20039;-88
2024/01/29 12:28:20;;;;;;;0.40;0.40;;;;;;;;;;5135068;27;20046;-87
2024/01/29 12:30:56;;;;;;;0.40;0.40;;;;;;;;;;5100097;27;20092;-91
2024/01/29 12:33:35;;;;;;;0.40;0.40;;;;;;;;;;5099145;27;20049;-91
2024/01/29 12:36:15;;;;;;;0.43;0.43;;;;;;;;;;5123539;27;20046;-89
2024/01/29 12:38:42;;;;;;;0.40;0.40;;;;;;;;;;5099214;27;20039;-89
2024/01/29 12:41:08;;;;;;;0.40;0.40;;;;;;;;;;5099875;27;20066;-88
2024/01/29 12:43:34;;;;;;;0.40;0.40;;;;;;;;;;5097770;27;20039;-89
2024/01/29 12:46:10;;;;;;;0.40;0.40;;;;;;;;;;5099067;27;20088;-90
2024/01/29 12:48:36;;;;;;;0.40;0.40;;;;;;;;;;5099325;27;20031;-86
2024/01/29 12:51:04;;;;;;;0.40;0.40;;;;;;;;;;5115835;27;20088;-87
2024/01/29 12:53:30;;;;;;;0.40;0.40;;;;;;;;;;5097989;27;20118;-87
2024/01/29 12:55:56;;;;;;;0.30;0.30;;;;;;;;;;5098911;27;20406;-84
2024/01/29 12:58:23;;;;;;;0.40;0.40;;;;;;;;;;5116047;27;20423;-83
2024/01/29 13:00:51;;;;;;;0.45;0.45;;;;;;;;;;5100413;27;20089;-86
2024/01/29 13:03:17;;;;;;;0.40;0.40;;;;;;;;;;5116631;27;20422;-87
2024/01/29 13:05:43;;;;;;;0.40;0.40;;;;;;;;;;5104079;27;20042;-88
2024/01/29 13:08:09;;;;;;;0.40;0.40;;;;;;;;;;5124637;27;20039;-87
2024/01/29 13:10:37;;;;;;;0.40;0.40;;;;;;;;;;5112683;27;20042;-88
2024/01/29 13:13:04;;;;;;;0.30;0.30;;;;;;;;;;5100087;27;20391;-94
2024/01/29 13:15:30;;;;;;;0.40;0.40;;;;;;;;;;5110544;27;20039;-89
2024/01/29 13:17:56;;;;;;;0.40;0.40;;;;;;;;;;5105005;27;20506;-90
2024/01/29 13:20:22;;;;;;;0.40;0.40;;;;;;;;;;5093528;27;20036;-90
2024/01/29 13:22:49;;;;;;;0.30;0.30;;;;;;;;;;5115050;27;20535;-90
2024/01/29 13:25:15;;;;;;;0.40;0.40;;;;;;;;;;5113424;27;20112;-86
2024/01/29 13:27:41;;;;;;;0.30;0.30;;;;;;;;;;5096819;27;20108;-86
2024/01/29 13:30:07;;;;;;;0.40;0.40;;;;;;;;;;5096023;27;20042;-85
2024/01/29 13:32:33;;;;;;;0.60;0.60;;;;;;;;;;5096097;27;20035;-88
2024/01/29 13:34:59;;;;;;;0.40;0.40;;;;;;;;;;5084521;28;20051;-87
2024/01/29 13:37:32;;;;;;;0.40;0.40;;;;;;;;;;5093193;28;20053;-88
2024/01/29 13:39:59;;;;;;;0.32;0.32;;;;;;;;;;5112086;28;20038;-89
2024/01/29 13:42:25;;;;;;;0.32;0.32;;;;;;;;;;5091158;27;20045;-88
2024/01/29 13:44:57;;;;;;;0.30;0.30;;;;;;;;;;5096558;27;20125;-91
2024/01/29 13:47:24;;;;;;;0.40;0.40;;;;;;;;;;5097831;28;20035;-89
2024/01/29 13:49:51;;;;;;;0.40;0.40;;;;;;;;;;5096353;28;20043;-89
2024/01/29 13:52:17;;;;;;;0.40;0.40;;;;;;;;;;5088770;28;20046;-89
2024/01/29 13:54:43;;;;;;;1.35;1.25;;;;;;;;;;5108207;28;20083;-88
2024/01/29 13:57:18;;;;;;;0.35;0.35;;;;;;;;;;5096201;28;20126;-88
2024/01/29 13:59:45;;;;;;;0.40;0.40;;;;;;;;;;5077643;28;20131;-86
2024/01/29 14:02:24;;;;;;;0.40;0.40;;;;;;;;;;5113572;28;20038;-87
2024/01/29 14:04:50;;;;;;;0.40;0.40;;;;;;;;;;5111174;28;20043;-87
2024/01/29 14:07:16;;;;;;;0.40;0.40;;;;;;;;;;5083785;28;20095;-88
2024/01/29 14:09:43;;;;;;;0.30;0.30;;;;;;;;;;5109422;28;20046;-88
2024/01/29 14:12:09;;;;;;;0.55;0.55;;;;;;;;;;5095025;28;20039;-86
2024/01/29 14:14:35;;;;;;;0.40;0.40;;;;;;;;;;5101717;28;20031;-88
2024/01/29 14:17:01;;;;;;;0.40;0.40;;;;;;;;;;5113731;27;20126;-93
2024/01/29 14:19:27;;;;;;;0.35;0.35;;;;;;;;;;5101383;27;20096;-87
2024/01/29 14:21:53;;;;;;;0.30;0.30;;;;;;;;;;5115655;27;20078;-87
2024/01/29 14:24:19;;;;;;;0.40;0.40;;;;;;;;;;5089389;28;20067;-88
2024/01/29 14:26:45;;;;;;;0.30;0.30;;;;;;;;;;5110044;28;20067;-86
2024/01/29 14:29:11;;;;;;;0.35;0.35;;;;;;;;;;5099685;27;20054;-86
2024/01/29 14:31:40;;;;;;;0.40;0.40;;;;;;;;;;5097967;27;20046;-86
2024/01/29 14:34:06;;;;;;;0.38;0.38;;;;;;;;;;5100873;27;20039;-87
2024/01/29 14:36:32;;;;;;;0.40;0.40;;;;;;;;;;5112341;27;20043;-88
2024/01/29 14:38:58;;;;;;;0.43;0.43;;;;;;;;;;5083586;27;20071;-86
2024/01/29 14:41:24;;;;;;;0.40;0.40;;;;;;;;;;5086804;27;20043;-85
2024/01/29 14:43:50;;;;;;;0.40;0.40;;;;;;;;;;5120151;27;20047;-86
2024/01/29 14:46:18;;;;;;;0.73;0.70;;;;;;;;;;5099294;27;20514;-87
2024/01/29 14:48:46;;;;;;;0.40;0.40;;;;;;;;;;5082598;28;20459;-91
2024/01/29 14:51:12;;;;;;;0.30;0.30;;;;;;;;;;5083854;28;20135;-84
2024/01/29 14:53:39;;;;;;;0.40;0.40;;;;;;;;;;5095965;27;20035;-84
2024/01/29 14:56:06;;;;;;;0.40;0.40;;;;;;;;;;5112585;28;20089;-83